Addiction — 9HA4571 — position and weather

sailwx.info

Track history (hours):
 
Tides and Currents Weather Stations Pressure Air Temp Water Temp Dewpoint Dewpoint Depression Visibility Wind Speed Wind Dir Waves Ship Positions

Addiction

Last reported at 2018-Jun-18 15:14 UTC. Time now 2018-Jun-21 01:01 UTC.
Position N 42°40' E 008°55'.

Length 54 m; draft 3.3 m.

Type: Pleasure craft. MMSI: 248233000.

Date/timePositionNaut miles runAvg speedWind from/ knotsBaromVisibWave heightAir tempDewpointWater temp
2018-Jun-18 15:14N 42°40' E 008°55'312.8
2018-Jun-18 15:00N 42°41' E 008°59'613.0
2018-Jun-18 14:30N 42°44' E 009°06'50 4.1
2018-Jun-18 02:21N 42°59' E 008°02'510.3
2018-Jun-18 01:54N 43°01' E 007°56'410.0
2018-Jun-18 01:30N 43°02' E 007°51'510.0
2018-Jun-18 01:01N 43°03' E 007°44'5 9.8
2018-Jun-18 00:30N 43°05' E 007°38'510.1
2018-Jun-18 00:00N 43°06' E 007°31'510.2
2018-Jun-17 23:30N 43°08' E 007°25'910.2
2018-Jun-17 22:40N 43°10' E 007°13'210.2
2018-Jun-17 22:30N 43°11' E 007°11'510.3
2018-Jun-17 22:01N 43°12' E 007°04'510.4
2018-Jun-17 21:30N 43°14' E 006°58'1410.8
2018-Jun-17 20:10N 43°17' E 006°38'1 5.1
2018-Jun-17 20:00N 43°16' E 006°38'0 0.1
2018-Jun-17 19:30N 43°16' E 006°37'0 0.0
2018-Jun-17 18:25N 43°16' E 006°37'0 0.0
2018-Jun-17 17:59N 43°16' E 006°37'0 0.0
2018-Jun-17 17:30N 43°16' E 006°37'0 0.0
2018-Jun-17 17:00N 43°16' E 006°37'0 0.0
2018-Jun-17 16:30N 43°16' E 006°37'0 0.0
2018-Jun-17 16:00N 43°16' E 006°37'0 0.1
2018-Jun-17 15:30N 43°16' E 006°38'4 7.6
2018-Jun-17 15:00N 43°16' E 006°43'3 3.9
2018-Jun-17 14:19N 43°14' E 006°40'0 0.0
2018-Jun-17 13:55N 43°14' E 006°40'0 0.0
2018-Jun-17 13:22N 43°14' E 006°40'0 0.0
2018-Jun-17 12:55N 43°14' E 006°40'0 0.0
2018-Jun-17 12:25N 43°14' E 006°40'0 0.0
2018-Jun-17 11:58N 43°14' E 006°40'0 0.0
2018-Jun-17 11:22N 43°14' E 006°40'0 0.3
2018-Jun-17 10:58N 43°14' E 006°40'0 0.0
2018-Jun-17 10:28N 43°14' E 006°40'1710.9
2018-Jun-17 08:57N 43°24' E 006°58'613.1
2018-Jun-17 08:30N 43°28' E 007°04'713.3
2018-Jun-17 08:00N 43°32' E 007°10'13 1.2
2018-Jun-16 21:12N 43°42' E 007°21'0 0.0
2018-Jun-16 14:20N 43°42' E 007°21'9 9.9
2018-Jun-16 13:28N 43°36' E 007°13'3 6.4
2018-Jun-16 12:58N 43°35' E 007°09'0 0.0
2018-Jun-16 12:16N 43°35' E 007°09'0 0.0
2018-Jun-16 11:57N 43°35' E 007°09'0 0.0
2018-Jun-16 11:27N 43°35' E 007°09'0 0.0
2018-Jun-16 10:58N 43°35' E 007°09'0 0.0
2018-Jun-16 10:30N 43°35' E 007°09'0 0.0
2018-Jun-15 20:42N 43°35' E 007°09'0 0.0
2018-Jun-15 20:28N 43°35' E 007°09'0 0.0
2018-Jun-15 19:59N 43°35' E 007°09'0 0.0
2018-Jun-15 19:17N 43°35' E 007°09'0 0.0
2018-Jun-15 19:00N 43°35' E 007°09'0 0.0
2018-Jun-15 16:27N 43°35' E 007°09'0 0.0
2018-Jun-15 16:00N 43°35' E 007°09'0 0.0
2018-Jun-15 14:49N 43°35' E 007°09'0 0.1
2018-Jun-15 14:19N 43°35' E 007°09'0 0.0
2018-Jun-15 13:21N 43°35' E 007°09'0 0.0
2018-Jun-15 13:00N 43°35' E 007°09'0 0.0
2018-Jun-15 12:30N 43°35' E 007°09'0 0.0
2018-Jun-15 12:00N 43°35' E 007°09'0 0.0
2018-Jun-15 11:18N 43°35' E 007°09'0 0.0
2018-Jun-15 11:00N 43°35' E 007°09'0 0.0
2018-Jun-15 10:29N 43°35' E 007°09'0 0.0
2018-Jun-15 10:00N 43°35' E 007°09'0 0.0
2018-Jun-15 05:54N 43°35' E 007°09'0 0.0
2018-Jun-15 05:12N 43°35' E 007°09'0 0.0
2018-Jun-15 04:58N 43°35' E 007°09'0 0.0
2018-Jun-15 04:25N 43°35' E 007°09'0 0.0
2018-Jun-15 04:01N 43°35' E 007°09'0 0.0
2018-Jun-15 02:17N 43°35' E 007°09'0 0.0
2018-Jun-14 21:34N 43°35' E 007°09'0 0.0
2018-Jun-14 21:21N 43°35' E 007°09'1 2.0
2018-Jun-14 20:59N 43°35' E 007°09'511.1
2018-Jun-14 20:30N 43°30' E 007°05'612.4
2018-Jun-14 20:00N 43°27' E 006°58'  
Track history (hours):
 
Tides and Currents Weather Stations Pressure Air Temp Water Temp Dewpoint Dewpoint Depression Visibility Wind Speed Wind Dir Waves Ship Positions

Addiction

Last reported at 2018-Jun-18 15:14 UTC. Time now 2018-Jun-21 01:01 UTC.
Position N 42°40' E 008°55'.

Length 54 m; draft 3.3 m.

Type: Pleasure craft. MMSI: 248233000.

Date/timePositionNaut miles runAvg speedWind from/ knotsBaromVisibWave heightAir tempDewpointWater temp
2018-Jun-18 15:14N 42°40' E 008°55'312.8
2018-Jun-18 15:00N 42°41' E 008°59'613.0
2018-Jun-18 14:30N 42°44' E 009°06'50 4.1
2018-Jun-18 02:21N 42°59' E 008°02'510.3
2018-Jun-18 01:54N 43°01' E 007°56'410.0
2018-Jun-18 01:30N 43°02' E 007°51'510.0
2018-Jun-18 01:01N 43°03' E 007°44'5 9.8
2018-Jun-18 00:30N 43°05' E 007°38'510.1
2018-Jun-18 00:00N 43°06' E 007°31'510.2
2018-Jun-17 23:30N 43°08' E 007°25'910.2
2018-Jun-17 22:40N 43°10' E 007°13'210.2
2018-Jun-17 22:30N 43°11' E 007°11'510.3
2018-Jun-17 22:01N 43°12' E 007°04'510.4
2018-Jun-17 21:30N 43°14' E 006°58'1410.8
2018-Jun-17 20:10N 43°17' E 006°38'1 5.1
2018-Jun-17 20:00N 43°16' E 006°38'0 0.1
2018-Jun-17 19:30N 43°16' E 006°37'0 0.0
2018-Jun-17 18:25N 43°16' E 006°37'0 0.0
2018-Jun-17 17:59N 43°16' E 006°37'0 0.0
2018-Jun-17 17:30N 43°16' E 006°37'0 0.0
2018-Jun-17 17:00N 43°16' E 006°37'0 0.0
2018-Jun-17 16:30N 43°16' E 006°37'0 0.0
2018-Jun-17 16:00N 43°16' E 006°37'0 0.1
2018-Jun-17 15:30N 43°16' E 006°38'4 7.6
2018-Jun-17 15:00N 43°16' E 006°43'3 3.9
2018-Jun-17 14:19N 43°14' E 006°40'0 0.0
2018-Jun-17 13:55N 43°14' E 006°40'0 0.0
2018-Jun-17 13:22N 43°14' E 006°40'0 0.0
2018-Jun-17 12:55N 43°14' E 006°40'0 0.0
2018-Jun-17 12:25N 43°14' E 006°40'0 0.0
2018-Jun-17 11:58N 43°14' E 006°40'0 0.0
2018-Jun-17 11:22N 43°14' E 006°40'0 0.3
2018-Jun-17 10:58N 43°14' E 006°40'0 0.0
2018-Jun-17 10:28N 43°14' E 006°40'1710.9
2018-Jun-17 08:57N 43°24' E 006°58'613.1
2018-Jun-17 08:30N 43°28' E 007°04'713.3
2018-Jun-17 08:00N 43°32' E 007°10'13 1.2
2018-Jun-16 21:12N 43°42' E 007°21'0 0.0
2018-Jun-16 14:20N 43°42' E 007°21'9 9.9
2018-Jun-16 13:28N 43°36' E 007°13'3 6.4
2018-Jun-16 12:58N 43°35' E 007°09'0 0.0
2018-Jun-16 12:16N 43°35' E 007°09'0 0.0
2018-Jun-16 11:57N 43°35' E 007°09'0 0.0
2018-Jun-16 11:27N 43°35' E 007°09'0 0.0
2018-Jun-16 10:58N 43°35' E 007°09'0 0.0
2018-Jun-16 10:30N 43°35' E 007°09'0 0.0
2018-Jun-15 20:42N 43°35' E 007°09'0 0.0
2018-Jun-15 20:28N 43°35' E 007°09'0 0.0
2018-Jun-15 19:59N 43°35' E 007°09'0 0.0
2018-Jun-15 19:17N 43°35' E 007°09'0 0.0
2018-Jun-15 19:00N 43°35' E 007°09'0 0.0
2018-Jun-15 16:27N 43°35' E 007°09'0 0.0
2018-Jun-15 16:00N 43°35' E 007°09'0 0.0
2018-Jun-15 14:49N 43°35' E 007°09'0 0.1
2018-Jun-15 14:19N 43°35' E 007°09'0 0.0
2018-Jun-15 13:21N 43°35' E 007°09'0 0.0
2018-Jun-15 13:00N 43°35' E 007°09'0 0.0
2018-Jun-15 12:30N 43°35' E 007°09'0 0.0
2018-Jun-15 12:00N 43°35' E 007°09'0 0.0
2018-Jun-15 11:18N 43°35' E 007°09'0 0.0
2018-Jun-15 11:00N 43°35' E 007°09'0 0.0
2018-Jun-15 10:29N 43°35' E 007°09'0 0.0
2018-Jun-15 10:00N 43°35' E 007°09'0 0.0
2018-Jun-15 05:54N 43°35' E 007°09'0 0.0
2018-Jun-15 05:12N 43°35' E 007°09'0 0.0
2018-Jun-15 04:58N 43°35' E 007°09'0 0.0
2018-Jun-15 04:25N 43°35' E 007°09'0 0.0
2018-Jun-15 04:01N 43°35' E 007°09'0 0.0
2018-Jun-15 02:17N 43°35' E 007°09'0 0.0
2018-Jun-14 21:34N 43°35' E 007°09'0 0.0
2018-Jun-14 21:21N 43°35' E 007°09'1 2.0
2018-Jun-14 20:59N 43°35' E 007°09'511.1
2018-Jun-14 20:30N 43°30' E 007°05'612.4
2018-Jun-14 20:00N 43°27' E 006°58'  

Dump ship's entire track history